Time;durP1;ratioP1;P1;durP2;ratioP2;P2;SDS_P1;SDS_P2;PMS_P1;PMS_P2;Temp;Humidity;BMP_temperature;BMP_pressure;BME280_temperature;BME280_humidity;BME280_pressure;Samples;Min_cycle;Max_cycle;Signal;HPM_P1;HPM_P2
2022/06/23 00:00:49;;;;;;;;;12.00;11.00;;;;;-146.67;34.86;73230.38;5085027;27;63791;-82
2022/06/23 00:03:21;;;;;;;;;14.00;14.00;;;;;-146.67;35.75;73224.38;5064240;27;61948;-82
2022/06/23 00:05:53;;;;;;;;;15.50;12.75;;;;;-146.67;36.21;73242.34;5085638;27;61924;-82
2022/06/23 00:08:18;;;;;;;;;14.50;11.75;;;;;-146.67;37.55;73258.31;5101546;27;61850;-81
2022/06/23 00:10:50;;;;;;;;;17.50;14.50;;;;;-146.67;37.24;73262.31;5082489;28;62426;-82
2022/06/23 00:13:22;;;;;;;;;13.50;11.00;;;;;-146.67;37.13;73262.31;5090506;27;62199;-81
2022/06/23 00:15:50;;;;;;;;;16.00;14.75;;;;;-146.67;37.16;73270.28;5103930;27;62144;-82
2022/06/23 00:18:24;;;;;;;;;18.25;13.50;;;;;-146.67;37.24;73274.28;5084397;27;62448;-81
2022/06/23 00:21:04;;;;;;;;;12.00;9.75;;;;;-146.67;37.75;73280.25;5082188;28;61732;-80
2022/06/23 00:23:40;;;;;;;;;15.50;13.00;;;;;-146.67;37.63;73280.25;5062710;28;61863;-81
2022/06/23 00:26:12;;;;;;;;;17.75;13.25;;;;;-146.67;37.52;73240.34;5064410;27;61964;-81
2022/06/23 00:28:44;;;;;;;;;21.75;16.25;;;;;-146.67;37.35;73228.38;5064041;28;62066;-80
2022/06/23 00:31:27;;;;;;;;;17.25;14.75;;;;;-146.67;36.88;73264.31;5082006;27;62905;-80
2022/06/23 00:33:54;;;;;;;;;24.50;22.00;;;;;-146.67;37.69;73292.25;5069403;27;62156;-81
2022/06/23 00:36:35;;;;;;;;;22.50;20.00;;;;;-146.67;37.73;73280.25;5064476;28;62049;-81
2022/06/23 00:39:03;;;;;;;;;22.50;17.75;;;;;-146.67;37.69;73282.25;5063250;28;62026;-81
2022/06/23 00:41:33;;;;;;;;;20.75;18.25;;;;;-146.67;37.12;73290.25;5081753;28;61702;-81
2022/06/23 00:44:41;;;;;;;;;18.25;17.25;;;;;-146.67;37.63;73290.25;5088129;27;61905;-81
2022/06/23 00:47:15;;;;;;;;;19.50;16.75;;;;;-146.67;37.54;73302.22;5084023;27;61718;-80
2022/06/23 00:53:13;;;;;;;;;25.75;20.00;;;;;-146.67;37.47;73294.22;3349795;22;61886;-79
2022/06/23 00:55:58;;;;;;;;;22.75;18.00;;;;;-146.67;36.78;73298.22;5059232;28;61959;-80
2022/06/23 00:58:47;;;;;;;;;20.00;16.00;;;;;-146.67;37.55;73312.19;5061749;28;61844;-79
2022/06/23 01:01:36;;;;;;;;;20.00;19.25;;;;;-146.67;37.02;73312.19;5083020;28;61889;-80
2022/06/23 01:04:13;;;;;;;;;18.50;16.50;;;;;-146.67;37.86;73320.19;5063824;28;62154;-79
2022/06/23 01:06:44;;;;;;;;;17.00;15.50;;;;;-146.67;37.67;73322.19;5063808;28;61706;-80
2022/06/23 01:09:54;;;;;;;;;13.50;13.50;;;;;-146.67;37.58;73350.13;5072693;28;61762;-79
2022/06/23 01:12:22;;;;;;;;;16.75;15.75;;;;;-146.67;37.92;73372.06;5041900;28;62016;-79
2022/06/23 01:14:47;;;;;;;;;14.50;14.00;;;;;-146.67;38.40;73344.13;5044219;28;63685;-79
2022/06/23 01:17:20;;;;;;;;;15.75;14.75;;;;;-146.67;38.06;73340.13;5062746;28;61833;-79
2022/06/23 01:19:52;;;;;;;;;15.25;13.25;;;;;-146.67;38.08;73334.16;5045491;28;62076;-79
2022/06/23 01:22:28;;;;;;;;;15.25;11.00;;;;;-146.67;37.90;73312.19;5045558;28;62102;-79
2022/06/23 01:25:29;;;;;;;;;19.75;16.50;;;;;-146.67;37.41;73288.25;5063958;28;62937;-79
2022/06/23 01:28:06;;;;;;;;;23.00;15.75;;;;;-146.67;38.00;73300.22;4984817;28;62211;-79
2022/06/23 01:30:37;;;;;;;;;14.00;12.75;;;;;-146.67;38.17;73310.19;5001286;28;61800;-79
2022/06/23 01:33:13;;;;;;;;;12.25;12.25;;;;;-146.67;38.54;73356.09;4985180;28;61915;-79
2022/06/23 01:35:52;;;;;;;;;17.25;15.75;;;;;-146.67;38.56;73356.09;5000336;28;62006;-79
2022/06/23 01:38:46;;;;;;;;;18.75;14.75;;;;;-146.67;38.40;73362.09;5000645;28;61938;-79
2022/06/23 01:41:21;;;;;;;;;18.50;12.75;;;;;-146.67;38.67;73352.13;5000428;28;62532;-80
2022/06/23 01:44:18;;;;;;;;;15.50;14.00;;;;;-146.67;38.48;73350.13;5001764;28;61873;-79
2022/06/23 01:46:49;;;;;;;;;19.25;15.75;;;;;-146.67;38.81;73372.06;4999377;28;61956;-80
2022/06/23 01:49:20;;;;;;;;;18.50;15.75;;;;;-146.67;39.24;73374.06;4984611;28;62049;-79
2022/06/23 01:52:07;;;;;;;;;17.50;16.25;;;;;-146.67;39.21;73390.03;4998357;28;62351;-79
2022/06/23 01:54:34;;;;;;;;;20.50;14.50;;;;;-146.67;39.15;73396.03;4996162;28;61827;-79
2022/06/23 01:57:11;;;;;;;;;17.25;15.25;;;;;-146.67;39.29;73402.00;4980601;28;64126;-79
2022/06/23 01:59:50;;;;;;;;;17.25;15.25;;;;;-146.67;39.51;73408.00;5000393;28;61799;-79
2022/06/23 02:02:21;;;;;;;;;18.00;15.00;;;;;-146.67;39.01;73390.03;5040876;28;61913;-79
2022/06/23 02:04:59;;;;;;;;;13.00;12.25;;;;;-146.67;39.07;73370.06;5042072;28;61918;-78
2022/06/23 02:07:24;;;;;;;;;16.25;15.75;;;;;-146.67;39.35;73388.03;5025461;28;63995;-79
2022/06/23 02:09:53;;;;;;;;;21.50;18.00;;;;;-146.67;39.29;73390.03;5072722;28;61987;-79
2022/06/23 02:12:29;;;;;;;;;19.50;15.75;;;;;-146.67;39.29;73392.03;5064543;28;61798;-80
2022/06/23 02:15:24;;;;;;;;;17.50;15.25;;;;;-146.67;38.93;73394.03;5045197;28;62150;-80
2022/06/23 02:18:04;;;;;;;;;18.50;15.50;;;;;-146.67;39.27;73396.03;5024324;28;63951;-80
2022/06/23 02:20:32;;;;;;;;;20.00;15.50;;;;;-146.67;39.50;73408.00;5041493;28;61878;-79
2022/06/23 02:23:33;;;;;;;;;16.75;14.50;;;;;-146.67;39.62;73412.00;5061796;28;62302;-79
2022/06/23 02:26:23;;;;;;;;;20.25;17.25;;;;;-146.67;39.58;73419.97;5022559;28;61742;-80
2022/06/23 02:29:06;;;;;;;;;18.00;14.00;;;;;-146.67;39.07;73394.03;5028996;28;63589;-79
2022/06/23 02:31:38;;;;;;;;;24.25;18.00;;;;;-146.67;39.34;73374.06;5071262;28;61783;-80
2022/06/23 02:34:10;;;;;;;;;19.50;14.50;;;;;-146.67;39.13;73376.06;5045071;28;61696;-79
2022/06/23 02:36:41;;;;;;;;;20.00;16.25;;;;;-146.67;39.49;73368.09;5065176;28;61660;-79
2022/06/23 02:39:18;;;;;;;;;19.25;17.75;;;;;-146.67;39.40;73364.09;5059371;28;63845;-79
2022/06/23 02:41:54;;;;;;;;;17.25;15.50;;;;;-146.67;39.42;73358.09;5044885;28;62322;-79
2022/06/23 02:44:20;;;;;;;;;16.75;16.00;;;;;-146.67;39.50;73358.09;5062331;28;61913;-79
2022/06/23 02:46:54;;;;;;;;;19.25;15.50;;;;;-146.67;39.32;73356.09;5063502;28;62071;-79
2022/06/23 02:49:48;;;;;;;;;17.75;15.50;;;;;-146.67;38.91;73350.13;5061478;28;62091;-80
2022/06/23 02:52:19;;;;;;;;;21.25;17.00;;;;;-146.67;39.06;73342.13;5071218;28;61764;-78
2022/06/23 02:55:22;;;;;;;;;21.50;18.00;;;;;-146.67;39.13;73340.13;5047864;28;61761;-79
2022/06/23 03:00:51;;;;;;;;;21.50;19.00;;;;;-146.67;39.05;73346.13;5256699;22;61458;-75
2022/06/23 03:03:25;;;;;;;;;20.00;19.00;;;;;-146.67;39.35;73340.13;5035782;28;62041;-75
2022/06/23 03:05:58;;;;;;;;;22.75;18.50;;;;;-146.67;39.51;73340.13;5044598;28;61917;-75
2022/06/23 03:08:51;;;;;;;;;23.50;18.25;;;;;-146.67;39.09;73334.16;5044677;28;61738;-75
2022/06/23 03:14:27;;;;;;;;;21.25;18.00;;;;;-146.67;39.42;73334.16;5044561;28;61877;-75
2022/06/23 03:17:15;;;;;;;;;24.00;19.00;;;;;-146.67;39.53;73332.16;5058616;28;61999;-75
2022/06/23 03:19:47;;;;;;;;;22.00;18.00;;;;;-146.67;39.39;73326.16;5045705;28;61789;-75
2022/06/23 03:22:28;;;;;;;;;17.00;15.25;;;;;-146.67;39.29;73336.16;5045476;28;62074;-75
2022/06/23 03:25:18;;;;;;;;;11.25;10.75;;;;;-146.67;39.34;73336.16;5043424;28;61923;-75
2022/06/23 03:27:53;;;;;;;;;12.75;9.25;;;;;-146.67;39.43;73334.16;5044285;28;61727;-75
2022/06/23 03:30:26;;;;;;;;;7.25;5.25;;;;;-146.67;39.67;73332.16;5042813;28;61924;-75
2022/06/23 03:33:00;;;;;;;;;5.00;4.00;;;;;-146.67;39.49;73336.16;5044029;28;61929;-75
2022/06/23 03:35:34;;;;;;;;;3.50;3.50;;;;;-146.67;39.45;73342.13;5061666;28;61949;-75
2022/06/23 03:38:02;;;;;;;;;5.00;3.00;;;;;-146.67;39.62;73368.09;5046382;28;61817;-75
2022/06/23 03:43:42;;;;;;;;;2.00;2.00;;;;;-146.67;39.15;73356.09;5040613;28;61811;-75
2022/06/23 03:46:16;;;;;;;;;3.00;2.00;;;;;-146.67;39.32;73362.09;5043774;28;62005;-75
2022/06/23 03:48:50;;;;;;;;;3.00;3.00;;;;;-146.67;39.11;73366.09;5043002;28;62148;-74
2022/06/23 03:51:24;;;;;;;;;3.00;2.00;;;;;-146.67;39.15;73402.00;5045081;28;62294;-74
2022/06/23 03:54:12;;;;;;;;;2.00;2.00;;;;;-146.67;38.95;73396.03;5049744;28;62748;-74
2022/06/23 03:56:45;;;;;;;;;2.25;2.00;;;;;-146.67;38.98;73398.03;5024015;28;62310;-75
2022/06/23 03:59:19;;;;;;;;;1.00;1.00;;;;;-146.67;38.91;73435.94;5030642;28;61997;-74
2022/06/23 04:01:50;;;;;;;;;4.00;1.67;;;;;-146.67;39.62;73441.94;5048199;28;62072;-74
2022/06/23 04:04:20;;;;;;;;;1.75;1.75;;;;;-146.67;39.38;73417.97;5043678;28;62026;-75
2022/06/23 04:06:50;;;;;;;;;3.25;1.75;;;;;-146.67;39.43;73417.97;5025425;28;61963;-74
2022/06/23 04:09:27;;;;;;;;;3.00;2.00;;;;;-146.67;39.09;73415.97;5046920;28;61868;-74
2022/06/23 04:12:05;;;;;;;;;2.50;2.00;;;;;-146.67;39.43;73429.97;5063707;28;61872;-74
2022/06/23 04:14:36;;;;;;;;;2.25;1.75;;;;;-146.67;38.94;73425.97;5060719;28;62139;-74
2022/06/23 04:17:32;;;;;;;;;2.00;1.00;;;;;-146.67;39.48;73465.88;5043219;28;62054;-74
2022/06/23 04:20:16;;;;;;;;;2.00;2.00;;;;;-146.67;38.82;73439.94;5049105;28;62132;-74
2022/06/23 04:22:48;;;;;;;;;3.75;3.75;;;;;-146.67;38.76;73441.94;5058996;28;61905;-74
2022/06/23 04:25:32;;;;;;;;;2.75;1.25;;;;;-146.67;39.13;73475.88;5041898;28;61922;-74
2022/06/23 04:28:00;;;;;;;;;2.00;2.00;;;;;-146.67;39.27;73481.84;5024882;28;61844;-74
2022/06/23 04:30:25;;;;;;;;;3.00;1.50;;;;;-146.67;39.24;73499.81;5041870;28;61949;-74
2022/06/23 04:32:52;;;;;;;;;3.50;2.50;;;;;-146.67;39.19;73499.81;5042392;28;62002;-74
2022/06/23 04:35:25;;;;;;;;;1.67;1.67;;;;;-146.67;39.04;73515.78;5042568;28;61950;-74
2022/06/23 04:38:16;;;;;;;;;4.25;2.50;;;;;-146.67;39.46;73517.78;5045982;28;61739;-74
2022/06/23 04:40:41;;;;;;;;;3.50;3.00;;;;;-146.67;39.32;73521.78;5045436;28;61914;-74
2022/06/23 04:43:19;;;;;;;;;3.00;2.00;;;;;-146.67;39.13;73479.84;5024436;28;61768;-74
2022/06/23 04:45:47;;;;;;;;;2.00;2.00;;;;;-146.67;38.82;73483.84;5041782;28;62096;-74
2022/06/23 04:48:27;;;;;;;;;4.25;1.00;;;;;-146.67;39.13;73493.81;5031206;28;61985;-74
2022/06/23 04:51:25;;;;;;;;;4.50;2.75;;;;;-146.67;39.30;73489.84;5044298;28;62251;-74
2022/06/23 04:53:57;;;;;;;;;2.00;2.00;;;;;-146.67;38.99;73487.84;5031097;28;61849;-73
2022/06/23 04:56:50;;;;;;;;;3.00;1.00;;;;;-146.67;38.67;73479.84;5041520;28;61844;-74
2022/06/23 04:59:40;;;;;;;;;3.50;1.50;;;;;-146.67;38.81;73477.84;5035943;28;61968;-74
2022/06/23 05:02:23;;;;;;;;;1.00;1.00;;;;;-146.67;39.12;73501.81;5045148;28;62156;-74
2022/06/23 05:04:57;;;;;;;;;4.25;3.00;;;;;-146.67;39.41;73519.78;5044917;28;61941;-73
2022/06/23 05:07:26;;;;;;;;;2.00;2.00;;;;;-146.67;39.15;73519.78;5055383;28;62934;-74
2022/06/23 05:09:57;;;;;;;;;5.50;2.75;;;;;-146.67;39.20;73513.78;5042132;28;61715;-74
2022/06/23 05:12:44;;;;;;;;;1.25;1.25;;;;;-146.67;39.35;73517.78;5045445;28;61809;-74
2022/06/23 05:15:09;;;;;;;;;1.75;1.75;;;;;-146.67;39.25;73521.78;5024540;28;62084;-74
2022/06/23 05:17:45;;;;;;;;;2.00;2.00;;;;;-146.67;39.62;73537.75;5043256;28;62861;-74
2022/06/23 05:20:19;;;;;;;;;5.00;2.00;;;;;-146.67;39.52;73539.72;5050496;28;61913;-75
2022/06/23 05:22:47;;;;;;;;;1.00;1.00;;;;;-146.67;39.52;73541.72;5024402;28;62304;-74
2022/06/23 05:25:15;;;;;;;;;3.75;2.00;;;;;-146.67;39.53;73525.75;5041848;28;61843;-74
2022/06/23 05:27:45;;;;;;;;;1.75;1.75;;;;;-146.67;39.36;73533.75;5041014;28;63000;-74
2022/06/23 05:30:26;;;;;;;;;3.00;1.00;;;;;-146.67;39.61;73529.75;5024634;28;62094;-74
2022/06/23 05:32:55;;;;;;;;;1.00;1.00;;;;;-146.67;39.51;73529.75;5062322;28;62060;-74
2022/06/23 05:35:25;;;;;;;;;1.00;1.00;;;;;-146.67;39.74;73517.78;5061232;28;62022;-74
2022/06/23 05:37:55;;;;;;;;;3.75;2.00;;;;;-146.67;39.49;73503.81;5061683;28;61720;-74
2022/06/23 05:40:30;;;;;;;;;2.33;2.00;;;;;-146.67;39.38;73497.81;5044041;28;61803;-74
2022/06/23 05:43:00;;;;;;;;;2.75;1.00;;;;;-146.67;39.29;73485.84;5061791;28;61766;-74
2022/06/23 05:45:31;;;;;;;;;1.25;1.25;;;;;-146.67;38.96;73475.88;5008724;28;61914;-75
2022/06/23 05:48:07;;;;;;;;;2.50;1.50;;;;;-146.67;38.45;73471.88;5040838;28;62973;-74
2022/06/23 05:50:56;;;;;;;;;1.25;1.25;;;;;-146.67;38.87;73461.88;5035308;28;61912;-74
2022/06/23 05:53:30;;;;;;;;;3.75;1.00;;;;;-146.67;38.06;73378.06;5023295;28;62025;-74
2022/06/23 05:56:00;;;;;;;;;2.00;2.00;;;;;-146.67;36.89;73296.22;5040456;28;61772;-75
2022/06/23 05:58:47;;;;;;;;;2.00;2.00;;;;;-146.67;36.16;73274.28;5036509;28;61904;-74
2022/06/23 06:01:28;;;;;;;;;4.00;3.00;;;;;-146.67;35.89;73218.41;5036385;28;61994;-77
2022/06/23 06:04:06;;;;;;;;;2.00;2.00;;;;;-146.67;35.21;73178.47;5040479;28;61877;-77
2022/06/23 06:06:33;;;;;;;;;2.00;2.00;;;;;-146.67;35.06;73164.50;5024680;28;61871;-75
2022/06/23 06:11:51;;;;;;;;;1.00;1.00;;;;;-146.67;35.08;73182.47;5042057;28;61799;-75
2022/06/23 06:14:26;;;;;;;;;1.67;1.67;;;;;-146.67;35.01;73170.50;5041362;28;61964;-75
2022/06/23 06:16:53;;;;;;;;;3.67;3.33;;;;;-146.67;34.81;73160.50;5022543;28;61986;-75
2022/06/23 06:19:22;;;;;;;;;3.33;2.00;;;;;-146.67;34.59;73148.53;5043037;28;63649;-76
2022/06/23 06:21:53;;;;;;;;;4.00;3.00;;;;;-146.67;34.52;73136.56;5060997;28;61841;-77
2022/06/23 06:24:22;;;;;;;;;4.00;3.33;;;;;-146.67;34.51;73154.53;5003844;28;62081;-75
2022/06/23 06:26:52;;;;;;;;;3.67;2.67;;;;;-146.67;34.20;73104.63;5025688;28;61712;-80
2022/06/23 06:29:33;;;;;;;;;1.33;1.33;;;;;-146.67;34.39;73148.53;5029528;28;63829;-76
2022/06/23 06:32:04;;;;;;;;;4.67;2.67;;;;;-146.67;34.28;73184.47;5042948;28;62026;-75
2022/06/23 06:34:35;;;;;;;;;3.67;3.67;;;;;-146.67;34.65;73194.44;5036237;28;61749;-74
2022/06/23 06:37:00;;;;;;;;;4.67;3.33;;;;;-146.67;34.85;73216.41;5026452;28;62221;-75
2022/06/23 06:39:46;;;;;;;;;5.67;4.00;;;;;-146.67;34.99;73226.38;5030641;28;64947;-75
2022/06/23 06:42:17;;;;;;;;;2.67;2.00;;;;;-146.67;34.84;73222.38;5044706;28;61772;-75
2022/06/23 06:44:55;;;;;;;;;4.00;4.00;;;;;-146.67;34.56;73206.41;5044649;28;61792;-75
2022/06/23 06:47:24;;;;;;;;;2.33;2.33;;;;;-146.67;34.37;73194.44;5033192;28;61923;-76
2022/06/23 06:49:53;;;;;;;;;4.67;3.33;;;;;-146.67;34.42;73178.47;5026221;28;63718;-76
2022/06/23 06:52:19;;;;;;;;;5.00;4.00;;;;;-146.67;34.39;73164.50;5025876;28;62250;-76
2022/06/23 06:54:48;;;;;;;;;3.67;3.00;;;;;-146.67;34.24;73170.50;5042981;28;62266;-78
2022/06/23 06:57:23;;;;;;;;;5.33;4.00;;;;;-146.67;34.11;73164.50;5046237;28;62134;-75
2022/06/23 07:00:05;;;;;;;;;3.67;3.67;;;;;-146.67;33.70;73160.50;5041740;28;62893;-76
2022/06/23 07:02:56;;;;;;;;;4.67;4.67;;;;;-146.67;34.13;73158.53;5043885;28;61899;-76
2022/06/23 07:05:26;;;;;;;;;3.33;2.00;;;;;-146.67;33.83;73160.50;5026147;28;61815;-76
2022/06/23 07:08:01;;;;;;;;;3.33;2.67;;;;;-146.67;34.00;73156.53;5027132;28;62309;-76
2022/06/23 07:10:32;;;;;;;;;4.33;2.67;;;;;-146.67;34.01;73146.53;5039435;28;63835;-76
2022/06/23 07:13:07;;;;;;;;;4.33;3.00;;;;;-146.67;33.89;73150.53;5043864;28;61821;-76
2022/06/23 07:15:41;;;;;;;;;5.00;4.00;;;;;-146.67;33.95;73154.53;5025880;28;62048;-76
2022/06/23 07:18:14;;;;;;;;;5.00;4.00;;;;;-146.67;33.96;73144.56;5018022;28;62279;-77
2022/06/23 07:20:52;;;;;;;;;3.33;3.33;;;;;-146.67;33.88;73152.53;5043502;28;62322;-75
2022/06/23 07:23:25;;;;;;;;;4.00;3.00;;;;;-146.67;33.99;73142.56;5043932;28;62294;-76
2022/06/23 07:25:55;;;;;;;;;4.00;2.67;;;;;-146.67;33.82;73144.56;5041737;28;61980;-82
2022/06/23 07:28:26;;;;;;;;;7.67;4.00;;;;;-146.67;33.56;73136.56;5029123;28;62832;-76
2022/06/23 07:30:57;;;;;;;;;5.00;5.00;;;;;-146.67;33.49;73142.56;5045838;28;62079;-75
2022/06/23 07:33:29;;;;;;;;;2.33;2.33;;;;;-146.67;33.41;73138.56;5051193;28;61882;-75
2022/06/23 07:36:17;;;;;;;;;4.00;4.00;;;;;-146.67;33.68;73134.56;5023535;28;61977;-75
2022/06/23 07:38:59;;;;;;;;;3.33;3.00;;;;;-146.67;33.53;73134.56;5024583;28;61819;-75
2022/06/23 07:41:39;;;;;;;;;4.00;4.00;;;;;-146.67;33.41;73118.59;5023065;28;63655;-75
2022/06/23 07:44:05;;;;;;;;;0.00;0.00;;;;;-146.67;33.00;73112.63;5059912;28;62321;-77
2022/06/23 07:46:34;;;;;;;;;6.33;4.00;;;;;-146.67;33.51;73124.59;5041390;28;62157;-80
2022/06/23 07:49:00;;;;;;;;;4.33;4.33;;;;;-146.67;33.48;73114.63;5024550;28;62063;-78
2022/06/23 07:51:26;;;;;;;;;4.33;3.00;;;;;-146.67;33.45;73112.63;5041587;28;61910;-77
2022/06/23 07:53:54;;;;;;;;;3.33;2.00;;;;;-146.67;33.43;73120.59;5024752;28;62096;-78
2022/06/23 07:56:24;;;;;;;;;4.67;2.00;;;;;-146.67;33.62;73114.63;5024424;28;61739;-78
2022/06/23 07:58:55;;;;;;;;;5.00;3.00;;;;;-146.67;33.48;73118.59;5043059;28;62158;-79
2022/06/23 08:01:23;;;;;;;;;6.00;4.33;;;;;-146.67;33.40;73114.63;5041237;28;61974;-78
2022/06/23 08:04:21;;;;;;;;;3.00;3.00;;;;;-146.67;33.17;73096.66;5043402;28;61824;-78
2022/06/23 08:06:48;;;;;;;;;3.00;3.00;;;;;-146.67;33.24;73078.69;5042044;28;61862;-75
2022/06/23 08:09:36;;;;;;;;;4.67;4.67;;;;;-146.67;33.03;73072.69;5023763;28;62290;-75
2022/06/23 08:17:48;;;;;;;;;3.00;3.00;;;;;-146.67;32.55;73086.69;5022966;28;61794;-75
2022/06/23 08:20:17;;;;;;;;;3.67;3.67;;;;;-146.67;33.21;73100.66;5039348;28;61922;-74
2022/06/23 08:22:44;;;;;;;;;3.33;3.33;;;;;-146.67;33.08;73116.59;5071336;28;64179;-75
2022/06/23 08:25:10;;;;;;;;;4.67;3.33;;;;;-146.67;33.16;73130.59;5041439;28;62102;-75
2022/06/23 08:27:40;;;;;;;;;7.00;5.00;;;;;-146.67;33.21;73112.63;5042904;28;62261;-75
2022/06/23 08:30:10;;;;;;;;;4.67;4.67;;;;;-146.67;33.21;73104.63;5057714;28;62030;-75
2022/06/23 08:32:39;;;;;;;;;4.00;4.00;;;;;-146.67;33.19;73116.59;5040891;28;64976;-74
2022/06/23 08:35:18;;;;;;;;;4.33;4.00;;;;;-146.67;33.38;73106.63;5041492;28;62011;-75
2022/06/23 08:38:05;;;;;;;;;5.00;3.33;;;;;-146.67;32.97;73110.63;5058013;28;61763;-75
2022/06/23 08:40:39;;;;;;;;;4.33;2.00;;;;;-146.67;32.85;73090.66;5043097;28;61960;-75
2022/06/23 08:43:30;;;;;;;;;3.50;3.50;;;;;-146.67;32.85;73106.63;5042350;28;61975;-75
2022/06/23 08:46:01;;;;;;;;;4.33;4.33;;;;;-146.67;32.80;73106.63;5042220;28;61761;-75
2022/06/23 08:48:44;;;;;;;;;4.67;4.67;;;;;-146.67;32.92;73104.63;5042503;28;61911;-75
2022/06/23 08:51:17;;;;;;;;;3.00;3.00;;;;;-146.67;32.59;73088.66;5022270;28;61784;-75
2022/06/23 08:54:19;;;;;;;;;2.67;2.67;;;;;-146.67;32.48;73090.66;5041635;28;61857;-75
2022/06/23 08:56:53;;;;;;;;;3.33;2.67;;;;;-146.67;32.47;73098.66;4961030;28;62018;-75
2022/06/23 08:59:40;;;;;;;;;4.67;4.00;;;;;-146.67;32.56;73096.66;4944833;28;61953;-75
2022/06/23 09:02:24;;;;;;;;;3.00;3.00;;;;;-146.67;32.36;73088.66;4960759;28;62066;-75
2022/06/23 09:05:07;;;;;;;;;4.33;2.00;;;;;-146.67;32.18;73078.69;4960930;28;61984;-75
2022/06/23 09:07:51;;;;;;;;;3.67;2.33;;;;;-146.67;32.44;73092.66;4960844;28;61820;-75
2022/06/23 09:10:34;;;;;;;;;5.33;4.00;;;;;-146.67;32.64;73080.69;4961067;28;62341;-75
2022/06/23 09:13:09;;;;;;;;;5.33;4.33;;;;;-146.67;32.29;73070.72;4960842;28;62001;-75
2022/06/23 09:16:12;;;;;;;;;4.33;4.33;;;;;-146.67;32.08;73048.75;4940777;28;62862;-75
2022/06/23 09:18:58;;;;;;;;;4.67;4.67;;;;;-146.67;32.16;73048.75;4939111;28;61818;-75
2022/06/23 09:22:08;;;;;;;;;3.33;3.33;;;;;-146.67;32.30;73044.75;4941589;28;61933;-75
2022/06/23 09:24:42;;;;;;;;;7.00;3.67;;;;;-146.67;31.96;73036.78;4927075;28;62242;-75
2022/06/23 09:27:34;;;;;;;;;3.67;3.00;;;;;-146.67;31.86;73030.78;4924957;28;65269;-75
2022/06/23 09:30:05;;;;;;;;;4.00;3.67;;;;;-146.67;31.44;73022.81;4884062;29;61911;-75
2022/06/23 09:32:33;;;;;;;;;5.33;4.00;;;;;-146.67;31.62;73028.78;4883537;29;61893;-75
2022/06/23 09:35:26;;;;;;;;;4.00;4.00;;;;;-146.67;32.16;73018.81;4940458;28;61835;-75
2022/06/23 09:38:17;;;;;;;;;4.00;2.67;;;;;-146.67;31.63;73004.84;4940903;28;63848;-76
2022/06/23 09:41:09;;;;;;;;;3.00;3.00;;;;;-146.67;31.73;73012.84;4941248;28;62170;-75
2022/06/23 09:43:38;;;;;;;;;3.33;2.00;;;;;-146.67;31.22;73024.81;4941230;28;61862;-75
2022/06/23 09:46:37;;;;;;;;;3.33;2.00;;;;;-146.67;31.88;73012.84;4941215;28;61963;-75
2022/06/23 09:49:29;;;;;;;;;4.67;3.00;;;;;-146.67;31.62;73012.84;4976326;28;63871;-75
2022/06/23 09:52:19;;;;;;;;;3.67;2.67;;;;;-146.67;31.55;73014.81;4960473;28;61885;-75
2022/06/23 09:54:53;;;;;;;;;5.00;3.00;;;;;-146.67;31.56;72984.91;4960655;28;62023;-75
2022/06/23 09:57:36;;;;;;;;;4.33;4.33;;;;;-146.67;31.14;72984.91;4960759;28;61810;-75
2022/06/23 10:00:12;;;;;;;;;4.67;2.33;;;;;-146.67;31.25;72982.91;4959648;28;63140;-75
2022/06/23 10:02:59;;;;;;;;;2.67;1.67;;;;;-146.67;31.33;72972.91;4975638;28;61909;-75
2022/06/23 10:05:31;;;;;;;;;5.00;4.00;;;;;-146.67;31.25;72960.94;4963003;28;61864;-76
2022/06/23 10:08:28;;;;;;;;;5.33;4.00;;;;;-146.67;31.15;72970.91;4999684;28;61803;-75
2022/06/23 10:11:09;;;;;;;;;3.00;3.00;;;;;-146.67;31.18;72968.94;4997818;28;64795;-75
2022/06/23 10:13:53;;;;;;;;;4.67;3.00;;;;;-146.67;31.39;72968.94;5006494;28;61952;-75
2022/06/23 10:16:53;;;;;;;;;4.67;4.67;;;;;-146.67;30.89;72937.00;5023876;28;62063;-76
2022/06/23 10:19:42;;;;;;;;;4.33;4.33;;;;;-146.67;30.77;72915.03;5004374;28;62393;-75
2022/06/23 10:22:13;;;;;;;;;4.00;3.00;;;;;-146.67;31.07;72879.13;5023423;28;62863;-75
2022/06/23 10:24:57;;;;;;;;;2.00;2.00;;;;;-146.67;30.83;72835.22;5006295;28;62208;-75
2022/06/23 10:27:37;;;;;;;;;4.67;2.67;;;;;-146.67;30.45;72823.25;5024027;28;61966;-75
2022/06/23 10:30:13;;;;;;;;;3.00;3.00;;;;;-146.67;30.08;72825.25;5005953;28;61775;-75
2022/06/23 10:33:16;;;;;;;;;5.67;3.00;;;;;-146.67;30.37;72815.25;5005306;28;64890;-75
2022/06/23 10:35:56;;;;;;;;;4.00;3.00;;;;;-146.67;29.92;72807.28;5023987;28;61977;-75
2022/06/23 10:38:31;;;;;;;;;3.00;3.00;;;;;-146.67;29.86;72785.31;5024252;28;61842;-75
2022/06/23 10:41:18;;;;;;;;;4.67;3.00;;;;;-146.67;30.26;72761.38;5024265;28;61737;-75
2022/06/23 10:43:54;;;;;;;;;3.33;2.00;;;;;-146.67;29.63;72721.47;5023125;28;62907;-76
2022/06/23 10:46:36;;;;;;;;;3.67;3.00;;;;;-146.67;29.12;72705.50;5005502;28;62025;-76
2022/06/23 10:49:24;;;;;;;;;2.00;2.00;;;;;-146.67;29.30;72671.59;5023712;28;61951;-75
2022/06/23 10:52:02;;;;;;;;;2.00;2.00;;;;;-146.67;29.13;72657.63;5005527;28;62183;-75
2022/06/23 10:54:27;;;;;;;;;4.00;3.00;;;;;-146.67;28.87;72635.66;5023263;28;62733;-75
2022/06/23 10:57:16;;;;;;;;;3.33;3.00;;;;;-146.67;29.10;72635.66;5023434;28;61969;-75
2022/06/23 10:59:57;;;;;;;;;4.33;3.67;;;;;-146.67;28.92;72665.59;5023324;28;62018;-75
2022/06/23 11:02:34;;;;;;;;;3.00;3.00;;;;;-146.67;29.41;72665.59;4978747;28;1298591;-77
2022/06/23 11:05:34;;;;;;;;;4.00;3.00;;;;;-146.67;29.45;72663.59;5024032;28;62839;-75
2022/06/23 11:08:27;;;;;;;;;2.67;2.67;;;;;-146.67;29.09;72635.66;5024287;28;61779;-75
2022/06/23 11:11:03;;;;;;;;;5.33;4.33;;;;;-146.67;28.99;72605.72;5024262;28;61872;-74
2022/06/23 11:14:01;;;;;;;;;6.00;2.67;;;;;-146.67;28.92;72611.72;5024111;28;61795;-75
2022/06/23 11:16:48;;;;;;;;;5.67;3.67;;;;;-146.67;28.82;72555.84;5023388;28;62349;-75
2022/06/23 11:19:48;;;;;;;;;2.00;2.00;;;;;-146.67;28.66;72551.84;5024469;28;61796;-75
2022/06/23 11:22:42;;;;;;;;;2.67;2.67;;;;;-146.67;28.36;72551.84;5024180;28;61890;-75
2022/06/23 11:25:36;;;;;;;;;4.67;3.00;;;;;-146.67;28.39;72539.88;5024362;28;61713;-75
2022/06/23 11:28:11;;;;;;;;;2.67;2.67;;;;;-146.67;28.34;72525.91;5004914;28;63880;-75
2022/06/23 11:30:55;;;;;;;;;3.67;2.33;;;;;-146.67;28.04;72493.97;5023699;28;61828;-75
2022/06/23 11:34:11;;;;;;;;;5.33;4.33;;;;;-146.67;28.04;72482.00;5024264;28;61764;-75
2022/06/23 11:37:24;;;;;;;;;4.00;4.00;;;;;-146.67;28.26;72466.03;5006467;28;61934;-75
2022/06/23 11:40:11;;;;;;;;;3.33;3.00;;;;;-146.67;28.21;72468.03;5023315;28;62073;-76
2022/06/23 11:42:52;;;;;;;;;2.00;1.67;;;;;-146.67;27.82;72446.09;5023656;28;61705;-75
2022/06/23 11:45:27;;;;;;;;;4.00;4.00;;;;;-146.67;26.85;72406.19;5005722;28;61879;-75
2022/06/23 11:48:08;;;;;;;;;4.00;2.33;;;;;-146.67;26.56;72284.47;5036623;28;61755;-75
2022/06/23 11:51:06;;;;;;;;;3.00;3.00;;;;;-146.67;26.03;72158.75;5042864;28;62556;-75
2022/06/23 11:53:59;;;;;;;;;2.67;2.67;;;;;-146.67;25.35;72029.06;5043280;28;61920;-75
2022/06/23 11:56:43;;;;;;;;;2.67;2.67;;;;;-146.67;25.11;71909.34;5058933;28;62184;-75
2022/06/23 11:59:26;;;;;;;;;3.67;2.67;;;;;-146.67;24.46;71803.63;5058804;28;62468;-75
2022/06/23 12:01:54;;;;;;;;;3.00;3.00;;;;;-146.67;23.79;71717.81;5024342;28;64715;-75
2022/06/23 12:04:46;;;;;;;;;2.00;2.00;;;;;-146.67;22.90;71610.09;5043673;28;61993;-73
2022/06/23 12:07:59;;;;;;;;;2.00;1.67;;;;;-146.67;23.33;71522.31;5024803;28;62156;-74
2022/06/23 12:10:27;;;;;;;;;4.67;3.33;;;;;-146.67;22.93;71562.22;4981043;28;61927;-73
2022/06/23 12:12:57;;;;;;;;;5.00;5.00;;;;;-146.67;22.52;71530.28;4962706;28;63906;-74
2022/06/23 12:15:33;;;;;;;;;5.33;4.67;;;;;-146.67;23.57;71426.56;4980786;28;61981;-73
2022/06/23 12:18:07;;;;;;;;;2.00;2.00;;;;;-146.67;21.97;71312.84;4980352;28;62356;-74
2022/06/23 12:21:05;;;;;;;;;2.00;2.00;;;;;-146.67;21.53;71268.97;4981013;28;62015;-74
2022/06/23 12:23:42;;;;;;;;;3.33;2.33;;;;;-146.67;22.13;71338.78;4964265;28;64893;-73